Terminal Aerodrome Forecast
Issued by NWS Jacksonville, FL

Home | Current Version | Previous Version | Text Only | Print | Product List | Glossary On
Versions: 1 2 3 4 5 6 7 8 9 10 11 12 13 14 15 16 17 18 19 20
000
FTUS42 KJAX 042321
TAFSSI
TAF
KSSI 042321Z 0500/0524 19005KT P6SM VCSH SCT050 BKN120
     FM050500 22005KT P6SM SCT120 BKN250
     FM051400 25007KT P6SM SCT030 SCT120
     FM052000 15008KT P6SM VCTS SCT040CB BKN250
      TEMPO 0520/0524 VRB15G25KT 3SM TSRA BR BKN030CB OVC060=

USA.gov is the U.S. government's official web portal to all federal, state and local government web resources and services.